Birmingham, AL (35211)

12:06 AM CDT on July 26, 2016 (GMT -0500)
Lakeview Estates | | Change Station

Elev 715 ft 33.45 °N, 86.81 °W | Updated 7 minutes ago

Scattered Clouds
Scattered Clouds
77.0 °F
Feels Like 78 °F
N
0.0
Wind Variable Wind from South

Today
High -- | Low -- °F
--% Chance of Precip.
Yesterday
High -- | Low -- °F
Precip. -- in
Pressure 30.04 in
Visibility 10.0 miles
Clouds Scattered Clouds 6500 ft
Heat Index 78 °F
Dew Point 74 °F
Humidity 89%
Rainfall in
Snow Depth Not available.
5:56 AM 7:51 PM
Waning Gibbous, 58% visible
METAR KBHM 260453Z 00000KT 10SM SCT065 25/23 A3007 RMK AO2 SLP171 T02500233
Pressure 30.04 in
Visibility 10.0 miles
Clouds Scattered Clouds 6500 ft
Heat Index 78 °F
Dew Point 74 °F
Humidity 89%
Rainfall in
Snow Depth Not available.
5:56 AM 7:51 PM
Waning Gibbous, 58% visible
METAR KBHM 260453Z 00000KT 10SM SCT065 25/23 A3007 RMK AO2 SLP171 T02500233

10-Day Weather Forecast

Almanac

Astronomy

Jul. 26, 2016 Rise Set
Actual Time
Civil Twilight
Nautical Twilight
Astronomical Twilight
Moon
Length of Visible Light
Length of Day
Tomorrow will be .
, % of the Moon is Illuminated

Today's Extremes

State Highs State Lows

Community

WunderPhotos

Upload Photos

1,927,538 photos uploaded!

WunderBlog® & News

Nearby

Air Quality

  Air Quality AQ Index Pollutant
Not available.

Snow Depth

Station Depth Elevation

Earthquake Activity

City Distance Mag. Time & Date
Minimum magnitude displayed is 2.5.

Coastal Water Temperatures

Place Temperature

Stations

Nearby Weather Stations

Station Location Temp. Windchill Dew Point Humidity Wind Precip. Elev Updated Type
                   

Watches & Warnings

There are currently no watches in effect.